METAR Data
IDs: Format: Raw Decoded Include TAF

Data at: 0109 UTC 06 Dec 2019

KPVU 060056Z 34005KT 2 1/2SM BR FEW035 OVC060 03/02 A3024 RMK AO2 SLP244 T00330017
KPVU 060028Z 31005KT 2 1/2SM BR BKN031 OVC060 03/02 A3023 RMK AO2
KPVU 052356Z 35004KT 2 1/2SM BR BKN029 OVC060 04/02 A3022 RMK AO2 SLP240 T00390022 10044 20033 52017
KPVU 052339Z 34007KT 2 1/2SM BR BKN027 OVC039 03/02 A3022 RMK AO2
KPVU 052305Z 32008KT 2 1/2SM BR SCT028 OVC037 04/02 A3021 RMK AO2
KPVU 052256Z 32008KT 2 1/2SM BR BKN028 OVC037 03/02 A3021 RMK AO2 SLP236 T00330022
KPVU 052203Z 32007KT 2 1/2SM BR OVC028 04/02 A3018 RMK AO2
KPVU 052156Z 32008KT 3SM BR BKN028 BKN036 OVC047 03/02 A3018 RMK AO2 SLP227 T00330022
KPVU 052103Z 33007KT 3SM BR OVC038 04/02 A3017 RMK AO2
KPVU 052056Z 32008KT 2 1/2SM BR OVC038 04/03 A3017 RMK AO2 SLP220 T00390028 53008
KPVU 051956Z 32004KT 2 1/2SM BR OVC034 04/03 A3015 RMK AO2 SLP213 T00390028
KPVU 051856Z 32004KT 2 1/2SM BR OVC032 04/03 A3015 RMK AO2 SLP215 T00390028
KPVU 051844Z 33005KT 2SM BR BKN032 OVC039 03/02 A3014 RMK AO2
KPVU 051803Z 33005KT 1 3/4SM BR OVC030 03/02 A3014 RMK AO2
KPVU 051756Z 32006KT 2SM BR OVC030 03/02 A3014 RMK AO2 SLP212 60000 T00330022 10050 20028 51031
KPVU 051703Z 30005KT 2SM BR OVC032 03/02 A3012 RMK AO2
KPVU 051656Z 30003KT 3SM BR OVC034 04/03 A3011 RMK AO2 SLP204 T00390028
KPVU 051556Z 32005KT 4SM BR OVC034 03/03 A3007 RMK AO2 SLP192 T00330028
KPVU 051456Z 00000KT 10SM OVC032 04/03 A3003 RMK AO2 SLP175 60000 T00440028 53019
KPVU 051356Z 00000KT 10SM SCT030 OVC039 04/03 A3000 RMK AO2 RAE51 SLP159 P0000 T00440028
KPVU 051354Z 00000KT 10SM BKN030 BKN036 OVC043 04/03 A3000 RMK AO2 RAE51 P0000
KPVU 051309Z AUTO 00000KT 9SM -RA BKN024 BKN030 OVC039 04/03 A2998 RMK AO2 P0000
KPVU 051256Z AUTO 25005KT 10SM -RA FEW026 SCT032 OVC039 05/03 A2997 RMK AO2 SLP147 P0000 T00500028
KPVU 051209Z AUTO 00000KT 3SM -RA BR FEW025 OVC031 04/03 A2995 RMK AO2 P0000
KPVU 051156Z AUTO 04003KT 2SM -RA BR BKN029 OVC046 03/03 A2995 RMK AO2 RAB42 SLP145 P0000 60001 70012 T00330028 10039 20028 53008
KPVU 051131Z AUTO 00000KT 2SM BR SCT039 OVC046 03/03 A2994 RMK AO2
KPVU 051056Z AUTO 00000KT 1 1/2SM BR OVC036 03/03 A2994 RMK AO2 SLP138 T00330028
KPVU 050956Z AUTO 00000KT 1 3/4SM BR SCT027 OVC035 03/03 A2993 RMK AO2 RAE16 SLP134 P0000 T00330028
KPVU 050906Z AUTO 00000KT 2 1/2SM -RA BR FEW007 BKN020 OVC025 04/03 A2992 RMK AO2 P0000
KPVU 050856Z AUTO 00000KT 2SM -RA BR OVC020 03/03 A2992 RMK AO2 RAE11B50 SLP132 P0000 60001 T00330028 53005
KPVU 050756Z AUTO 08004KT 2SM -RA BR OVC029 03/03 A2990 RMK AO2 RAE17B51UPB17E26 SLP127 P0000 T00330028
KPVU 050753Z AUTO 00000KT 2SM -RA BR OVC029 03/03 A2990 RMK AO2 RAE17B51UPB17E26 P0000
KPVU 050715Z AUTO 00000KT 1 3/4SM -RA BR FEW014 OVC037 03/02 A2990 RMK AO2 P0000
KPVU 050656Z AUTO 05003KT 2SM -RA BR FEW016 OVC039 03/02 A2991 RMK AO2 SLP131 P0001 T00280022 400611017
KPVU 050618Z AUTO 36004KT 2SM -RA BR OVC034 03/02 A2991 RMK AO2 P0000
KPVU 050556Z AUTO 36004KT 1 3/4SM -RA BR BKN037 OVC044 03/02 A2991 RMK AO2 SLP131 P0004 60011 T00280017 10050 20017 50009
KPVU 050513Z AUTO 33006KT 2SM -RA BR FEW030 OVC036 02/01 A2991 RMK AO2 P0001 FZRANO
KPVU 050456Z AUTO 32005KT 1 3/4SM -RA BR SCT030 OVC035 02/01 A2991 RMK AO2 UPE08RAB08 SLP137 P0007 T00170006 FZRANO
KPVU 050447Z AUTO 32007KT 1 3/4SM RA BR OVC035 02/01 A2990 RMK AO2 UPE08RAB08 P0005 FZRANO
KPVU 050356Z AUTO 32006KT 2 1/2SM UP BR BKN055 OVC070 02/00 A2988 RMK AO2 UPB50 SLP125 P0000 T00220000 FZRANO
KPVU 050256Z 32010KT 2 1/2SM BR OVC095 02/00 A2988 RMK AO2 SLP130 T00220000 56009
KPVU 050254Z 32010KT 2 1/2SM BR OVC095 02/00 A2987 RMK AO2
KPVU 050156Z 34007KT 4SM HZ OVC100 04/01 A2989 RMK AO2 SLP131 T00390006
KPVU 050056Z 01005KT 5SM HZ FEW075 BKN200 04/01 A2991 RMK AO2 SLP135 T00440006
KPVU 042358Z COR 32006KT 5SM HZ FEW075 BKN200 04/00 A2992 RMK AO2 SLP140 T00440000 10061 20033 56018
KPVU 042356Z 32006KT 5SM HZ CLR BKN200 04/00 A2992 RMK AO2 SLP140 T00440000 10061 20033 56018
KPVU 042256Z 32003KT 6SM HZ CLR 06/00 A2994 RMK AO2 SLP146 T00560000
KPVU 042156Z 30006KT 8SM SCT150 BKN200 06/M01 A2995 RMK AO2 SLP149 T00611006
KPVU 042056Z 28004KT 6SM HZ FEW070 SCT150 BKN200 06/00 A2998 RMK AO2 SLP161 T00560000 56028
KPVU 041956Z 28004KT 4SM HZ CLR 04/01 A3001 RMK AO2 SLP174 T00440006
KPVU 041856Z 00000KT 4SM HZ SCT110 SCT200 04/01 A3005 RMK AO2 SLP186 T00390011
KPVU 041816Z VRB04KT 3SM HZ SCT120 03/01 A3007 RMK AO2
KPVU 041756Z 29003KT 2 1/2SM HZ SCT120 04/01 A3008 RMK AO2 SLP197 T00390011 10039 21017 56007
KPVU 041656Z 00000KT 1 1/4SM BR SCT110 02/01 A3009 RMK AO2 SLP205 T00170006
KPVU 041556Z 00000KT 1 1/4SM BR SCT100 SCT200 03/02 A3010 RMK AO2 SLP207 T00280017
KPVU 041547Z 00000KT 1 1/4SM BR SCT100 SCT200 01/01 A3011 RMK AO2
KPVU 041512Z 00000KT 1/2SM FZFG SCT100 SCT200 M01/M02 A3011 RMK AO2
KPVU 041456Z 00000KT 3/4SM BR SCT100 SCT200 M02/M03 A3011 RMK AO2 SLP217 T10171028 55007
KPVU 041416Z 00000KT 1SM BR CLR M01/M02 A3011 RMK AO2
KPVU 041409Z 24003KT 1/2SM FZFG CLR M01/M01 A3011 RMK AO2
KPVU 041404Z 00000KT 1SM BR FEW065 M01/M01 A3011 RMK AO2
KPVU 041356Z 00000KT 1 1/4SM BR SCT065 M01/M02 A3010 RMK AO2 SLP209 T10061017
KPVU 041326Z AUTO 23003KT 1 3/4SM BR BKN060 M01/M02 A3011 RMK AO2 FZRANO